sensor_id;sensor_type;location;lat;lon;timestamp;pressure;altitude;pressure_sealevel;temperature;humidity
15558;BME280;7880;50.110;9.372;2022-07-09T00:00:09;12.852225136483321;;;13.437;100.0
15558;BME280;7880;50.110;9.372;2022-07-09T00:05:14;12.832055392820621;;;13.375;100.0
15558;BME280;7880;50.110;9.372;2022-07-09T00:10:18;12.993413472507381;;;13.5;100.0
15558;BME280;7880;50.110;9.372;2022-07-09T00:15:22;12.973243696248392;;;13.437;100.0
15558;BME280;7880;50.110;9.372;2022-07-09T00:20:25;13.109389776363969;;;13.562;99.70699530125863
15558;BME280;7880;50.110;9.372;2022-07-09T00:25:29;12.80180078605772;;;13.437;100.0
15558;BME280;7880;50.110;9.372;2022-07-09T00:30:51;12.620273365505273;;;13.25;100.0
15558;BME280;7880;50.110;9.372;2022-07-09T00:35:53;12.50934012751677;;;13.187;100.0
15558;BME280;7880;50.110;9.372;2022-07-09T00:40:59;12.635400636144913;;;13.187;99.54961417551102
15558;BME280;7880;50.110;9.372;2022-07-09T00:46:02;12.6454854846932;;;13.187;98.63800893014124
15558;BME280;7880;50.110;9.372;2022-07-09T00:51:06;12.554721889668144;;;13.187;99.25473826781509
15558;BME280;7880;50.110;9.372;2022-07-09T00:56:18;12.635400636144913;;;13.125;99.15609596709479
15558;BME280;7880;50.110;9.372;2022-07-09T01:01:17;12.539594632998341;;;13.062;98.54429861324319
15558;BME280;7880;50.110;9.372;2022-07-09T01:06:27;12.3580677572696;;;13.0;100.0
15558;BME280;7880;50.110;9.372;2022-07-09T01:11:23;12.549679470487172;;;13.0;98.50899580107428
15558;BME280;7880;50.110;9.372;2022-07-09T01:16:30;12.60010367539362;;;13.0;97.42440245878812
15558;BME280;7880;50.110;9.372;2022-07-09T01:21:31;12.121074903849513;;;12.812;100.0
15558;BME280;7880;50.110;9.372;2022-07-09T01:26:36;12.04543902213336;;;12.75;100.0
15558;BME280;7880;50.110;9.372;2022-07-09T01:31:40;11.984930363908642;;;12.562;100.0
15558;BME280;7880;50.110;9.372;2022-07-09T01:36:44;12.0605661932379;;;12.562;100.0
15558;BME280;7880;50.110;9.372;2022-07-09T01:41:47;11.823574146867031;;;12.437;100.0
15558;BME280;7880;50.110;9.372;2022-07-09T01:46:50;11.87904031286016;;;12.5;100.0
15558;BME280;7880;50.110;9.372;2022-07-09T01:51:56;11.984930363908642;;;12.5;100.0
15558;BME280;7880;50.110;9.372;2022-07-09T01:57:00;11.949633665964939;;;12.562;100.0
15558;BME280;7880;50.110;9.372;2022-07-09T02:02:09;11.995015137369046;;;12.562;100.0
15558;BME280;7880;50.110;9.372;2022-07-09T02:07:06;12.040396632347257;;;12.562;100.0
15558;BME280;7880;50.110;9.372;2022-07-09T02:12:09;11.964760820480297;;;12.5;100.0
15558;BME280;7880;50.110;9.372;2022-07-09T02:17:13;11.954676050512353;;;12.437;99.94405372768051
15558;BME280;7880;50.110;9.372;2022-07-09T02:22:19;11.662218227848644;;;12.375;100.0
15558;BME280;7880;50.110;9.372;2022-07-09T02:27:23;11.747938522719778;;;12.312;100.0
15558;BME280;7880;50.110;9.372;2022-07-09T02:32:28;11.793319889350096;;;12.312;100.0
15558;BME280;7880;50.110;9.372;2022-07-09T02:37:28;11.581540380098158;;;12.187;100.0
15558;BME280;7880;50.110;9.372;2022-07-09T02:42:31;11.642048758926103;;;12.25;100.0
15558;BME280;7880;50.110;9.372;2022-07-09T02:47:41;11.611794564273442;;;12.187;100.0
15558;BME280;7880;50.110;9.372;2022-07-09T02:52:39;11.405057847895659;;;12.125;100.0
15558;BME280;7880;50.110;9.372;2022-07-09T02:57:55;11.53615912348032;;;12.187;100.0
15558;BME280;7880;50.110;9.372;2022-07-09T03:02:47;11.460523748170818;;;12.125;100.0
15558;BME280;7880;50.110;9.372;2022-07-09T03:07:54;11.64709112572018;;;12.125;100.0
15558;BME280;7880;50.110;9.372;2022-07-09T03:12:55;11.652133492805296;;;12.125;100.0
15558;BME280;7880;50.110;9.372;2022-07-09T03:18:01;11.56137092980207;;;12.062;100.0
15558;BME280;7880;50.110;9.372;2022-07-09T03:23:13;11.450439036410534;;;12.0;100.0
15558;BME280;7880;50.110;9.372;2022-07-09T03:28:06;11.334464934840799;;;11.937;100.0
15558;BME280;7880;50.110;9.372;2022-07-09T03:33:10;11.546243845135905;;;12.0;100.0
15558;BME280;7880;50.110;9.372;2022-07-09T03:38:18;11.455481392145156;;;11.937;100.0
15558;BME280;7880;50.110;9.372;2022-07-09T03:43:19;11.495820248499513;;;11.937;100.0
15558;BME280;7880;50.110;9.372;2022-07-09T03:48:20;11.36471903345082;;;11.875;100.0
15558;BME280;7880;50.110;9.372;2022-07-09T03:53:28;11.39497314253822;;;11.875;100.0
15558;BME280;7880;50.110;9.372;2022-07-09T03:58:30;11.566413291939535;;;11.937;100.0
15558;BME280;7880;50.110;9.372;2022-07-09T04:03:33;11.541201484162594;;;12.0;100.0
15558;BME280;7880;50.110;9.372;2022-07-09T04:08:39;11.39497314253822;;;11.937;100.0
15558;BME280;7880;50.110;9.372;2022-07-09T04:13:40;11.440354325814406;;;11.875;100.0
15558;BME280;7880;50.110;9.372;2022-07-09T04:18:55;11.621879294660175;;;11.937;100.0
15558;BME280;7880;50.110;9.372;2022-07-09T04:23:51;11.566413291939535;;;12.062;100.0
15558;BME280;7880;50.110;9.372;2022-07-09T04:28:52;11.747938522719778;;;12.062;100.0
15558;BME280;7880;50.110;9.372;2022-07-09T04:34:11;11.793319889350096;;;12.25;100.0
15558;BME280;7880;50.110;9.372;2022-07-09T04:39:02;11.899209836497903;;;12.25;100.0
15558;BME280;7880;50.110;9.372;2022-07-09T04:44:11;12.03535424285219;;;12.375;100.0
15558;BME280;7880;50.110;9.372;2022-07-09T04:49:07;12.065608584188158;;;12.375;100.0
15558;BME280;7880;50.110;9.372;2022-07-09T04:54:10;12.317728502774845;;;12.562;100.0
15558;BME280;7880;50.110;9.372;2022-07-09T04:59:15;12.494212878705003;;;12.625;100.0
15558;BME280;7880;50.110;9.372;2022-07-09T05:04:16;12.640443060273537;;;12.75;100.0
15558;BME280;7880;50.110;9.372;2022-07-09T05:09:27;12.832055392820621;;;12.937;100.0
15558;BME280;7880;50.110;9.372;2022-07-09T05:14:27;13.0337530389952;;;13.062;100.0
15558;BME280;7880;50.110;9.372;2022-07-09T05:19:28;13.295960675185778;;;13.25;100.0
15558;BME280;7880;50.110;9.372;2022-07-09T05:24:31;13.573296531382947;;;13.5;100.0
15558;BME280;7880;50.110;9.372;2022-07-09T05:29:35;13.769953399250516;;;13.687;100.0
15558;BME280;7880;50.110;9.372;2022-07-09T05:33:02;13.986780715384521;;;13.812;100.0
15558;BME280;7880;50.110;9.372;2022-07-09T05:38:06;14.163268462993438;;;13.937;100.0
15558;BME280;7880;50.110;9.372;2022-07-09T05:43:10;14.556585297413402;;;14.187;100.0
15558;BME280;7880;50.110;9.372;2022-07-09T05:48:14;14.879308125056559;;;14.375;100.0
15558;BME280;7880;50.110;9.372;2022-07-09T05:53:20;15.23228758276091;;;14.812;100.0
15558;BME280;7880;50.110;9.372;2022-07-09T05:58:20;15.378522347309627;;;14.937;98.89708095707466
15558;BME280;7880;50.110;9.372;2022-07-09T06:03:23;15.570140685141087;;;15.25;96.84179698952184
15558;BME280;7880;50.110;9.372;2022-07-09T06:08:32;15.686120409570867;;;15.375;96.13302210040166
15558;BME280;7880;50.110;9.372;2022-07-09T06:13:31;15.867654200369724;;;15.5;96.61762043144556
15558;BME280;7880;50.110;9.372;2022-07-09T06:18:34;16.049188368354226;;;15.687;96.7320744696312
15558;BME280;7880;50.110;9.372;2022-07-09T06:23:38;16.129870341863715;;;15.812;95.01160877662171
15558;BME280;7880;50.110;9.372;2022-07-09T06:28:41;16.276106608752162;;;15.937;94.56453995147547
15558;BME280;7880;50.110;9.372;2022-07-09T06:33:50;16.523196029668906;;;16.125;93.26571415823769
15558;BME280;7880;50.110;9.372;2022-07-09T06:39:56;16.629091709689238;;;16.25;91.8306057255405
15558;BME280;7880;50.110;9.372;2022-07-09T06:44:36;16.785414138581835;;;16.437;90.84636604197037
15558;BME280;7880;50.110;9.372;2022-07-09T06:49:40;16.8560114562104;;;16.562;91.68342360538358
15558;BME280;7880;50.110;9.372;2022-07-09T06:54:49;16.891310136415996;;;16.625;89.29182321515829
15558;BME280;7880;50.110;9.372;2022-07-09T06:59:48;16.916523488151142;;;16.687;89.71994514444692
15558;BME280;7880;50.110;9.372;2022-07-09T07:04:54;17.183785463869572;;;16.875;89.76229793656006
15558;BME280;7880;50.110;9.372;2022-07-09T07:09:55;17.763696335820715;;;17.25;87.0187013632534
15558;BME280;7880;50.110;9.372;2022-07-09T07:15:04;18.005747229611735;;;17.562;85.68067485856666
15558;BME280;7880;50.110;9.372;2022-07-09T07:20:10;18.217542311741273;;;17.812;84.72172915213064
15558;BME280;7880;50.110;9.372;2022-07-09T07:25:07;18.620962936064462;;;18.125;82.83013425402015
15558;BME280;7880;50.110;9.372;2022-07-09T07:30:12;18.58062078981311;;;18.312;81.40385870100928
15558;BME280;7880;50.110;9.372;2022-07-09T07:35:20;18.681476190366084;;;18.25;80.90567266260436
15558;BME280;7880;50.110;9.372;2022-07-09T07:40:30;18.747032263153233;;;18.437;80.17900420721536
15558;BME280;7880;50.110;9.372;2022-07-09T07:45:23;18.857973421458155;;;18.687;78.85118278057803
15558;BME280;7880;50.110;9.372;2022-07-09T07:50:26;18.822673946717988;;;18.562;78.30167845438726
15558;BME280;7880;50.110;9.372;2022-07-09T07:55:33;18.691561736824223;;;18.5;79.03373146603884
15558;BME280;7880;50.110;9.372;2022-07-09T08:00:34;18.58062078981311;;;18.375;78.80392324339954
15558;BME280;7880;50.110;9.372;2022-07-09T08:05:37;18.797460044920445;;;18.437;79.24709413319195
15558;BME280;7880;50.110;9.372;2022-07-09T08:10:44;18.661305100942265;;;18.437;78.44743869641445
15558;BME280;7880;50.110;9.372;2022-07-09T08:15:46;18.89831569576636;;;18.562;79.08522033530159
15558;BME280;7880;50.110;9.372;2022-07-09T08:20:55;19.084898956731195;;;18.687;78.25075465894918
15558;BME280;7880;50.110;9.372;2022-07-09T08:25:53;18.99412867189967;;;18.812;78.26921950860049
15558;BME280;7880;50.110;9.372;2022-07-09T08:30:58;19.009257046156563;;;18.75;76.77008393002016
15558;BME280;7880;50.110;9.372;2022-07-09T08:36:00;19.24122577942908;;;18.875;75.02568670229265
15558;BME280;7880;50.110;9.372;2022-07-09T08:41:04;19.38242444032803;;;19.0;75.69236993846899
15558;BME280;7880;50.110;9.372;2022-07-09T08:46:16;19.690036598738516;;;19.25;76.55638105900151
15558;BME280;7880;50.110;9.372;2022-07-09T08:51:23;19.30173946330324;;;19.125;76.39362075005877
15558;BME280;7880;50.110;9.372;2022-07-09T08:56:22;19.00421425444656;;;18.875;76.53914340284055
15558;BME280;7880;50.110;9.372;2022-07-09T09:01:25;19.195840544026577;;;18.937;75.75145745608877
15558;BME280;7880;50.110;9.372;2022-07-09T09:06:36;19.891750077396864;;;19.375;73.44649380824501
15558;BME280;7880;50.110;9.372;2022-07-09T09:11:34;20.03799264060799;;;19.5;72.55462208784316
15558;BME280;7880;50.110;9.372;2022-07-09T09:16:41;20.123721153527732;;;19.75;70.57533585094309
15558;BME280;7880;50.110;9.372;2022-07-09T09:21:40;20.0783354597399;;;19.625;71.72378249557902
15558;BME280;7880;50.110;9.372;2022-07-09T09:26:44;19.765679098665714;;;19.625;70.41436583664947
15558;BME280;7880;50.110;9.372;2022-07-09T09:31:49;19.68499376773834;;;19.562;71.29577426334721
15558;BME280;7880;50.110;9.372;2022-07-09T09:36:53;19.589180034032324;;;19.437;70.30992787821273
15558;BME280;7880;50.110;9.372;2022-07-09T09:41:56;19.78080760650919;;;19.5;67.9344772263829
15558;BME280;7880;50.110;9.372;2022-07-09T09:46:59;20.75912334183813;;;19.937;68.38943726334541
15558;BME280;7880;50.110;9.372;2022-07-09T09:52:04;20.970925098058068;;;20.312;65.97960565859553
15558;BME280;7880;50.110;9.372;2022-07-09T09:57:08;20.587665153300623;;;20.312;66.48421879346486
15558;BME280;7880;50.110;9.372;2022-07-09T10:02:13;21.475217060191788;;;20.625;66.40612843280552
15558;BME280;7880;50.110;9.372;2022-07-09T10:07:15;20.456550294958287;;;20.437;67.17695402396708
15558;BME280;7880;50.110;9.372;2022-07-09T10:12:27;20.2296211973764;;;20.125;67.99197604182001
15558;BME280;7880;50.110;9.372;2022-07-09T10:17:27;20.169106870889664;;;20.0;68.42967904954858
15558;BME280;7880;50.110;9.372;2022-07-09T10:22:35;20.37082145549357;;;20.125;67.34922341464947
15558;BME280;7880;50.110;9.372;2022-07-09T10:27:42;20.42629304789589;;;20.25;66.31198494811372
15558;BME280;7880;50.110;9.372;2022-07-09T10:32:46;20.527150578849252;;;20.25;65.26077814000848
15558;BME280;7880;50.110;9.372;2022-07-09T10:37:12;21.021354163304203;;;20.625;65.74509185358109
15558;BME280;7880;50.110;9.372;2022-07-09T10:42:17;21.515560542891034;;;21.0;60.20072356738336
15558;BME280;7880;50.110;9.372;2022-07-09T10:47:20;21.858480897877598;;;21.187;62.103981185039814
15558;BME280;7880;50.110;9.372;2022-07-09T10:52:30;22.448508776072412;;;21.687;59.2481136872585
15558;BME280;7880;50.110;9.372;2022-07-09T10:57:36;21.571032862016;;;21.437;58.35002000561361
15558;BME280;7880;50.110;9.372;2022-07-09T11:02:30;21.737450030684705;;;21.375;61.534024014600575
15558;BME280;7880;50.110;9.372;2022-07-09T11:07:36;21.818137256853515;;;21.375;62.09638358695227
15558;BME280;7880;50.110;9.372;2022-07-09T11:12:47;21.359229651186617;;;21.25;61.0755169118704
15558;BME280;7880;50.110;9.372;2022-07-09T11:17:43;21.6063334470673;;;21.25;61.31043720598546
15558;BME280;7880;50.110;9.372;2022-07-09T11:22:46;20.9608392885013;;;21.0;62.174303199617185
15558;BME280;7880;50.110;9.372;2022-07-09T11:27:48;21.031439979845892;;;20.875;61.39927910824111
15558;BME280;7880;50.110;9.372;2022-07-09T11:32:52;22.060199382394785;;;21.375;59.5660715674024
15558;BME280;7880;50.110;9.372;2022-07-09T11:37:59;21.1121265540889;;;21.187;58.735115307676615
15558;BME280;7880;50.110;9.372;2022-07-09T11:43:12;21.102040728233987;;;21.062;57.26695439433134
15558;BME280;7880;50.110;9.372;2022-07-09T11:48:08;20.859981256962055;;;20.937;59.075035266131394
15558;BME280;7880;50.110;9.372;2022-07-09T11:53:19;20.708694427931913;;;20.75;60.04134545214251
15558;BME280;7880;50.110;9.372;2022-07-09T11:58:16;20.658265543129527;;;20.625;57.902330734175
15558;BME280;7880;50.110;9.372;2022-07-09T12:03:23;20.90536735674832;;;20.687;58.03258219147859
15558;BME280;7880;50.110;9.372;2022-07-09T12:08:27;21.55590404421673;;;21.062;57.11315608443381
15558;BME280;7880;50.110;9.372;2022-07-09T12:13:26;21.90891047535115;;;21.312;57.32367690915718
15558;BME280;7880;50.110;9.372;2022-07-09T12:18:30;22.756131728511537;;;21.937;54.95073346003351
15558;BME280;7880;50.110;9.372;2022-07-09T12:23:34;22.735959698451914;;;22.125;54.705134815102724
15558;BME280;7880;50.110;9.372;2022-07-09T12:28:38;22.35269201207557;;;22.062;53.36960138591384
15558;BME280;7880;50.110;9.372;2022-07-09T12:34:11;22.38294992619776;;;22.0;55.670519260447456
15558;BME280;7880;50.110;9.372;2022-07-09T12:39:15;21.828223165363305;;;21.812;56.403098956047245
15558;BME280;7880;50.110;9.372;2022-07-09T12:44:21;21.803008396271615;;;21.625;56.418339152422995
15558;BME280;7880;50.110;9.372;2022-07-09T12:49:22;21.868566811044;;;21.625;55.6773658012488
15558;BME280;7880;50.110;9.372;2022-07-09T12:54:33;21.94925415828475;;;21.687;55.2515716345761
15558;BME280;7880;50.110;9.372;2022-07-09T12:59:30;22.206445574853568;;;21.812;53.326534722371726
15558;BME280;7880;50.110;9.372;2022-07-09T13:04:36;22.282090253202476;;;21.937;53.78586064014425
15558;BME280;7880;50.110;9.372;2022-07-09T13:09:43;22.277047272608616;;;22.0;53.2908838341846
15558;BME280;7880;50.110;9.372;2022-07-09T13:14:46;22.30730516053736;;;21.937;54.00423388629472
15558;BME280;7880;50.110;9.372;2022-07-09T13:19:45;22.635099618003004;;;22.187;50.18329472062718
15558;BME280;7880;50.110;9.372;2022-07-09T13:24:53;22.4888527081348;;;22.187;48.18576974672974
15558;BME280;7880;50.110;9.372;2022-07-09T13:29:52;22.564497630955884;;;22.187;49.78923722499995
15558;BME280;7880;50.110;9.372;2022-07-09T13:34:57;22.816647846630076;;;22.375;51.20160799824369
15558;BME280;7880;50.110;9.372;2022-07-09T13:40:00;22.851948934886604;;;22.5;50.71771742660909
15558;BME280;7880;50.110;9.372;2022-07-09T13:45:04;22.821690858365038;;;22.5;49.71963648815044
15558;BME280;7880;50.110;9.372;2022-07-09T13:50:11;22.55441163746291;;;22.437;50.42618601023512
15558;BME280;7880;50.110;9.372;2022-07-09T13:55:14;22.277047272608616;;;22.187;51.044347868811336
15558;BME280;7880;50.110;9.372;2022-07-09T14:00:17;22.156015825667417;;;22.062;51.51406626801045
15558;BME280;7880;50.110;9.372;2022-07-09T14:05:22;21.96438304418698;;;21.875;51.937759692417266
15558;BME280;7880;50.110;9.372;2022-07-09T14:10:26;22.377906939783134;;;22.062;50.470312047100585
15558;BME280;7880;50.110;9.372;2022-07-09T14:15:34;22.337563058943488;;;22.187;50.57260953211849
15558;BME280;7880;50.110;9.372;2022-07-09T14:20:34;22.12071501855389;;;22.0;51.51844031317083
15558;BME280;7880;50.110;9.372;2022-07-09T14:25:45;22.009769717609743;;;21.875;51.651020308608615
15558;BME280;7880;50.110;9.372;2022-07-09T14:30:47;21.92908231448964;;;21.75;51.36586573612151
15558;BME280;7880;50.110;9.372;2022-07-09T14:35:50;21.984554896131158;;;21.812;52.07429454564352
15558;BME280;7880;50.110;9.372;2022-07-09T14:40:52;21.818137256853515;;;21.625;51.857113075446584
15558;BME280;7880;50.110;9.372;2022-07-09T14:45:59;22.09045719523565;;;21.812;50.89206348617244
15558;BME280;7880;50.110;9.372;2022-07-09T14:50:59;21.979511932708554;;;21.812;52.59052221536014
15558;BME280;7880;50.110;9.372;2022-07-09T14:56:05;22.055156414606607;;;21.875;51.799219101385916
15558;BME280;7880;50.110;9.372;2022-07-09T15:01:06;21.90891047535115;;;21.75;51.00644517006983
15558;BME280;7880;50.110;9.372;2022-07-09T15:06:17;22.26191833257326;;;22.0;51.15817109491152
15558;BME280;7880;50.110;9.372;2022-07-09T15:11:15;22.38294992619776;;;22.25;51.961663382093555
15558;BME280;7880;50.110;9.372;2022-07-09T15:16:23;22.05011344710947;;;21.937;50.515602339405
15558;BME280;7880;50.110;9.372;2022-07-09T15:21:24;21.90891047535115;;;21.75;51.702297935088595
15558;BME280;7880;50.110;9.372;2022-07-09T15:26:31;21.89378159905318;;;21.75;51.72901157345343
15558;BME280;7880;50.110;9.372;2022-07-09T15:31:36;21.797965443326394;;;21.625;51.68258774508277
15558;BME280;7880;50.110;9.372;2022-07-09T15:36:34;21.757621830241987;;;21.562;52.24643529610276
15558;BME280;7880;50.110;9.372;2022-07-09T15:41:27;21.697106445539976;;;21.5;52.28795791393864
15558;BME280;7880;50.110;9.372;2022-07-09T15:46:32;21.687020552164178;;;21.5;53.352165830147385
15558;BME280;7880;50.110;9.372;2022-07-09T15:51:38;21.60129050547257;;;21.437;53.3383488123937
15558;BME280;7880;50.110;9.372;2022-07-09T15:56:45;21.550861105532384;;;21.312;53.971717399755754
15558;BME280;7880;50.110;9.372;2022-07-09T16:01:44;21.48025999451056;;;21.312;54.96215803565544
15558;BME280;7880;50.110;9.372;2022-07-09T16:06:47;21.460088258981706;;;21.25;55.04818750362151
15558;BME280;7880;50.110;9.372;2022-07-09T16:12:59;21.40461601028801;;;21.187;54.509012328568495
15558;BME280;7880;50.110;9.372;2022-07-09T16:17:38;21.394530150672654;;;21.187;55.26805149230961
15558;BME280;7880;50.110;9.372;2022-07-09T16:22:43;21.26341408161097;;;21.062;55.85391101645297
15558;BME280;7880;50.110;9.372;2022-07-09T16:27:47;21.273499926092335;;;21.062;55.848896115270996
15558;BME280;7880;50.110;9.372;2022-07-09T16:32:52;21.228113635093905;;;21.0;56.71970634626615
15558;BME280;7880;50.110;9.372;2022-07-09T16:37:56;21.182727367669578;;;21.0;55.9861616042329
15558;BME280;7880;50.110;9.372;2022-07-09T16:43:00;21.122212381107964;;;20.937;56.42263681417912
15558;BME280;7880;50.110;9.372;2022-07-09T16:48:06;21.051611616421724;;;20.875;56.46303726921351
15558;BME280;7880;50.110;9.372;2022-07-09T16:53:07;20.678437093558024;;;20.625;57.1023486140179
15558;BME280;7880;50.110;9.372;2022-07-09T16:58:09;20.411164428293706;;;20.25;58.46971093362649
15558;BME280;7880;50.110;9.372;2022-07-09T17:03:19;20.2296211973764;;;20.0;59.704035773171775
15558;BME280;7880;50.110;9.372;2022-07-09T17:08:17;19.90183576355339;;;19.687;63.151835667419824
15558;BME280;7880;50.110;9.372;2022-07-09T17:13:22;19.619436991220574;;;19.375;64.84904444632743
15558;BME280;7880;50.110;9.372;2022-07-09T17:18:24;19.54379461789504;;;19.187;65.4098701915806
15558;BME280;7880;50.110;9.372;2022-07-09T17:23:27;19.432852588803506;;;19.125;66.16192106827906
15558;BME280;7880;50.110;9.372;2022-07-09T17:28:31;19.28661103840568;;;19.0;70.23390298663952
15558;BME280;7880;50.110;9.372;2022-07-09T17:33:33;19.13532693349407;;;18.812;70.14218118451916
15558;BME280;7880;50.110;9.372;2022-07-09T17:38:36;19.04959939031396;;;18.687;70.28090481601045
15558;BME280;7880;50.110;9.372;2022-07-09T17:43:41;18.91344405343407;;;18.562;70.78091020070732
15558;BME280;7880;50.110;9.372;2022-07-09T17:48:55;18.656262329313904;;;18.375;74.53682180461306
15558;BME280;7880;50.110;9.372;2022-07-09T17:53:48;18.323440045327878;;;18.0;80.21307015341091
15558;BME280;7880;50.110;9.372;2022-07-09T17:58:51;18.051131846848875;;;17.687;83.91950452047729
15558;BME280;7880;50.110;9.372;2022-07-09T18:03:55;17.824208996404195;;;17.375;86.56179755978968
15558;BME280;7880;50.110;9.372;2022-07-09T18:09:22;17.73344002124504;;;17.187;88.08079682790876
15558;BME280;7880;50.110;9.372;2022-07-09T18:14:02;17.52668881872669;;;17.062;90.1647913285864
15558;BME280;7880;50.110;9.372;2022-07-09T18:19:10;17.758653615997172;;;17.125;89.68136595068651
15558;BME280;7880;50.110;9.372;2022-07-09T18:24:11;17.556945061706937;;;17.125;91.0994630703689
15558;BME280;7880;50.110;9.372;2022-07-09T18:29:14;17.561987769888947;;;17.062;90.91920176845669
15558;BME280;7880;50.110;9.372;2022-07-09T18:34:23;17.66284199464717;;;17.125;91.67096092041358
15558;BME280;7880;50.110;9.372;2022-07-09T18:39:21;17.78386721802526;;;17.312;93.79772280865383
15558;BME280;7880;50.110;9.372;2022-07-09T18:44:27;17.65275656693266;;;17.125;96.00787489657532
15558;BME280;7880;50.110;9.372;2022-07-09T18:49:30;17.511560701165582;;;17.125;97.92189844908681
15558;BME280;7880;50.110;9.372;2022-07-09T18:54:43;17.567030478361993;;;17.125;98.17367355408312
15558;BME280;7880;50.110;9.372;2022-07-09T18:59:49;17.62754300273955;;;17.187;98.00146284300327
15558;BME280;7880;50.110;9.372;2022-07-09T19:04:43;17.521646112581948;;;17.0;97.48797516895907
15558;BME280;7880;50.110;9.372;2022-07-09T19:09:51;17.66284199464717;;;17.0;96.79543895397099
15558;BME280;7880;50.110;9.372;2022-07-09T19:14:56;17.430877451744163;;;17.0;97.17309442585263
15558;BME280;7880;50.110;9.372;2022-07-09T19:19:54;17.319938105443725;;;16.812;97.62509012557975
15558;BME280;7880;50.110;9.372;2022-07-09T19:24:58;17.19891352467821;;;16.75;98.51030398215772
15558;BME280;7880;50.110;9.372;2022-07-09T19:30:01;16.987120911717646;;;16.562;100.0
15558;BME280;7880;50.110;9.372;2022-07-09T19:35:05;16.850968788773752;;;16.312;98.33500215672262
15558;BME280;7880;50.110;9.372;2022-07-09T19:40:13;16.55345192514942;;;16.062;98.50044052004802
15558;BME280;7880;50.110;9.372;2022-07-09T19:45:14;16.462684270140016;;;15.937;99.41426334498915
15558;BME280;7880;50.110;9.372;2022-07-09T19:50:18;16.55345192514942;;;15.875;98.31508976595525
15558;BME280;7880;50.110;9.372;2022-07-09T19:55:19;16.45259898095974;;;15.812;98.80939743926945
15558;BME280;7880;50.110;9.372;2022-07-09T20:00:22;16.472769560484448;;;15.875;97.6314110383359
15558;BME280;7880;50.110;9.372;2022-07-09T20:05:26;16.276106608752162;;;15.812;97.0486254937634
15558;BME280;7880;50.110;9.372;2022-07-09T20:10:31;16.124827716336586;;;15.625;96.89578742910551
15558;BME280;7880;50.110;9.372;2022-07-09T20:15:36;16.069358854746678;;;15.562;96.44898689611922
15558;BME280;7880;50.110;9.372;2022-07-09T20:20:38;15.998762172745774;;;15.437;97.16974036734315
15558;BME280;7880;50.110;9.372;2022-07-09T20:25:46;15.963463853136636;;;15.312;96.5882117305107
15558;BME280;7880;50.110;9.372;2022-07-09T20:30:50;15.670992610696704;;;15.125;97.79123779335188
15558;BME280;7880;50.110;9.372;2022-07-09T20:35:59;15.776887257822091;;;15.187;97.57316397851179
15558;BME280;7880;50.110;9.372;2022-07-09T20:40:57;15.686120409570867;;;15.187;96.94212526714827
15558;BME280;7880;50.110;9.372;2022-07-09T20:45:38;15.449118528142572;;;14.937;96.55055447643969
15558;BME280;7880;50.110;9.372;2022-07-09T20:50:42;15.565098091919207;;;14.937;96.69837976952641
15558;BME280;7880;50.110;9.372;2022-07-09T20:55:52;15.555012906348566;;;14.875;96.96661153385537
15558;BME280;7880;50.110;9.372;2022-07-09T21:00:49;15.272628183016787;;;14.687;97.62545397694768
15558;BME280;7880;50.110;9.372;2022-07-09T21:05:53;15.20203214479261;;;14.687;98.36023277786104
15558;BME280;7880;50.110;9.372;2022-07-09T21:10:55;15.23733015677426;;;14.625;96.89172539935603
15558;BME280;7880;50.110;9.372;2022-07-09T21:16:07;15.287755912914871;;;14.625;97.4743623446514
15558;BME280;7880;50.110;9.372;2022-07-09T21:21:04;15.12135102809989;;;14.562;98.33315910788544
15558;BME280;7880;50.110;9.372;2022-07-09T21:26:09;15.207074717059731;;;14.625;97.25204341083415
15558;BME280;7880;50.110;9.372;2022-07-09T21:31:13;15.010414614301407;;;14.437;97.21985751155496